createdAt,value
2022-10-04T00:03:23.629Z,2.80
2022-10-04T00:08:40.481Z,2.47
2022-10-04T00:13:48.218Z,2.70
2022-10-04T00:19:15.112Z,2.55
2022-10-04T00:24:22.285Z,3.35
2022-10-04T00:29:34.392Z,3.10
2022-10-04T00:34:36.075Z,2.88
2022-10-04T00:39:40.430Z,2.70
2022-10-04T00:44:49.165Z,2.40
2022-10-04T00:49:56.426Z,2.30
2022-10-04T00:55:07.511Z,3.35
2022-10-04T01:00:21.396Z,4.00
2022-10-04T01:05:34.273Z,3.13
2022-10-04T01:10:54.663Z,2.55
2022-10-04T01:16:11.440Z,2.28
2022-10-04T01:21:19.548Z,2.55
2022-10-04T01:26:29.209Z,2.40
2022-10-04T01:31:34.007Z,2.75
2022-10-04T01:36:36.985Z,3.00
2022-10-04T01:42:01.016Z,2.45
2022-10-04T01:47:19.690Z,2.63
2022-10-04T01:52:27.865Z,2.42
2022-10-04T01:57:42.480Z,2.90
2022-10-04T02:03:10.690Z,3.22
2022-10-04T02:08:16.365Z,2.92
2022-10-04T02:13:18.953Z,2.80
2022-10-04T02:18:22.195Z,2.58
2022-10-04T02:23:24.870Z,2.67
2022-10-04T02:28:26.726Z,3.03
2022-10-04T02:33:28.555Z,2.63
2022-10-04T02:38:36.313Z,2.78
2022-10-04T02:43:59.308Z,2.33
2022-10-04T02:49:10.172Z,2.60
2022-10-04T02:54:41.152Z,2.55
2022-10-04T02:59:42.967Z,2.58
2022-10-04T03:04:44.688Z,2.60
2022-10-04T03:09:46.638Z,2.70
2022-10-04T03:14:48.525Z,2.20
2022-10-04T03:19:51.005Z,7.45
2022-10-04T03:24:56.329Z,3.53
2022-10-04T03:29:59.585Z,2.70
2022-10-04T03:35:05.425Z,2.85
2022-10-04T03:40:09.986Z,2.75
2022-10-04T03:45:15.763Z,3.05
2022-10-04T03:50:25.280Z,3.20
2022-10-04T03:55:44.304Z,4.00
2022-10-04T04:01:27.812Z,3.77
2022-10-04T04:06:47.242Z,3.47
2022-10-04T04:11:50.782Z,3.38
2022-10-04T04:16:55.092Z,2.97
2022-10-04T04:21:57.077Z,3.60
2022-10-04T04:27:05.409Z,3.28
2022-10-04T04:32:17.398Z,4.20
2022-10-04T04:37:20.444Z,3.50
2022-10-04T04:42:31.763Z,3.40
2022-10-04T04:47:44.167Z,3.75
2022-10-04T04:52:53.406Z,3.63
2022-10-04T04:57:58.081Z,3.60
2022-10-04T05:03:06.152Z,3.38
2022-10-04T05:08:22.328Z,3.80
2022-10-04T05:13:37.174Z,4.22
2022-10-04T05:18:38.908Z,3.22
2022-10-04T05:23:40.769Z,4.47
2022-10-04T05:28:42.604Z,4.10
2022-10-04T05:33:50.332Z,3.78
2022-10-04T05:39:19.685Z,4.68
2022-10-04T05:44:27.881Z,3.80
2022-10-04T05:49:44.251Z,3.47
2022-10-04T05:54:46.176Z,3.40
2022-10-04T06:00:00.532Z,3.33
2022-10-04T06:06:00.583Z,3.15
2022-10-04T06:11:17.170Z,2.75
2022-10-04T06:16:52.341Z,3.63
2022-10-04T06:22:02.767Z,3.03
2022-10-04T06:27:07.298Z,3.65
2022-10-04T06:32:26.855Z,3.35
2022-10-04T06:37:35.961Z,3.58
2022-10-04T06:42:59.402Z,2.97
2022-10-04T06:48:10.200Z,2.95
2022-10-04T06:53:47.545Z,2.83
2022-10-04T06:59:19.964Z,2.88
2022-10-04T07:10:32.986Z,3.05
2022-10-04T07:16:04.141Z,2.72
2022-10-04T07:21:11.714Z,3.60
2022-10-04T07:26:33.832Z,3.10
2022-10-04T07:31:38.213Z,3.15
2022-10-04T07:36:43.621Z,3.20
2022-10-04T07:42:10.507Z,3.33
2022-10-04T07:47:27.780Z,3.30
2022-10-04T07:52:44.878Z,3.58
2022-10-04T07:57:55.303Z,3.70
2022-10-04T08:03:21.743Z,4.50
2022-10-04T08:09:05.726Z,4.07
2022-10-04T08:14:36.157Z,3.90
2022-10-04T08:19:42.973Z,4.22
2022-10-04T08:25:03.697Z,4.45
2022-10-04T08:30:15.898Z,4.10
2022-10-04T08:35:36.381Z,4.28
2022-10-04T08:41:02.465Z,4.25
2022-10-04T08:46:23.042Z,4.55
2022-10-04T08:51:39.872Z,4.78
2022-10-04T08:56:57.823Z,4.78
2022-10-04T09:02:21.010Z,5.20
2022-10-04T09:07:28.628Z,4.63
2022-10-04T09:12:44.576Z,5.03
2022-10-04T09:18:04.682Z,4.13
2022-10-04T09:23:06.865Z,4.53
2022-10-04T09:28:27.289Z,4.55
2022-10-04T09:33:50.484Z,4.22
2022-10-04T09:39:30.067Z,3.72
2022-10-04T09:50:01.436Z,3.88
2022-10-04T09:55:42.335Z,3.58
2022-10-04T10:01:13.059Z,3.17
2022-10-04T10:06:21.072Z,2.78
2022-10-04T10:12:10.873Z,3.00
2022-10-04T10:17:45.813Z,3.42
2022-10-04T10:23:27.929Z,2.90
2022-10-04T10:28:38.590Z,1.83
2022-10-04T10:34:35.349Z,4.70
2022-10-04T10:40:02.520Z,2.60
2022-10-04T10:45:38.078Z,3.00
2022-10-04T10:51:03.385Z,2.60
2022-10-04T10:56:14.049Z,2.83
2022-10-04T11:01:31.198Z,2.70
2022-10-04T11:06:47.143Z,3.30
2022-10-04T11:12:07.471Z,3.28
2022-10-04T11:17:40.775Z,2.80
2022-10-04T11:22:51.392Z,2.78
2022-10-04T11:28:05.644Z,3.08
2022-10-04T11:33:25.222Z,2.80
2022-10-04T11:38:48.540Z,2.83
2022-10-04T11:43:56.799Z,3.00
2022-10-04T11:49:17.077Z,2.85
2022-10-04T11:54:43.103Z,2.72
2022-10-04T12:00:12.404Z,2.55
2022-10-04T12:05:35.272Z,2.67
2022-10-04T12:10:40.214Z,2.80
2022-10-04T12:16:18.033Z,2.60
2022-10-04T12:21:52.618Z,2.22
2022-10-04T12:27:13.243Z,2.05
2022-10-04T12:32:36.689Z,2.33
2022-10-04T12:37:46.606Z,2.80
2022-10-04T12:43:03.229Z,1.85
2022-10-04T12:48:47.437Z,2.13
2022-10-04T12:53:58.941Z,1.92
2022-10-04T12:59:18.885Z,2.17
2022-10-04T13:04:39.191Z,2.20
2022-10-04T13:10:25.529Z,1.90
2022-10-04T13:17:25.494Z,1.85
2022-10-04T13:21:05.612Z,2.22
2022-10-04T13:26:48.755Z,2.35
2022-10-04T13:32:01.281Z,2.45
2022-10-04T13:37:45.084Z,2.35
2022-10-04T13:43:09.157Z,2.00
2022-10-04T13:48:45.914Z,1.83
2022-10-04T13:54:15.197Z,1.50
2022-10-04T13:59:35.137Z,1.97
2022-10-04T14:04:57.064Z,2.13
2022-10-04T14:10:34.679Z,1.70
2022-10-04T14:16:02.851Z,1.73
2022-10-04T14:21:27.078Z,1.63
2022-10-04T14:26:59.856Z,1.73
2022-10-04T14:32:25.729Z,1.98
2022-10-04T14:37:27.428Z,1.80
2022-10-04T14:42:45.879Z,1.75
2022-10-04T14:48:06.502Z,1.80
2022-10-04T14:53:20.364Z,1.70
2022-10-04T14:58:26.366Z,1.70
2022-10-04T15:03:46.031Z,2.25
2022-10-04T15:14:04.434Z,1.20
2022-10-04T15:19:20.430Z,1.48
2022-10-04T15:24:31.713Z,2.05
2022-10-04T15:29:40.111Z,1.90
2022-10-04T15:34:55.830Z,2.30
2022-10-04T15:40:25.335Z,1.88
2022-10-04T15:45:52.883Z,1.70
2022-10-04T15:51:17.310Z,2.38
2022-10-04T15:56:35.855Z,2.10
2022-10-04T16:01:55.168Z,2.45
2022-10-04T16:07:19.481Z,2.10
2022-10-04T16:12:33.093Z,2.92
2022-10-04T16:18:27.804Z,2.00
2022-10-04T16:23:37.582Z,2.10
2022-10-04T16:28:58.108Z,2.58
2022-10-04T16:34:07.950Z,2.40
2022-10-04T16:39:29.601Z,2.20
2022-10-04T16:44:46.288Z,2.55
2022-10-04T16:49:57.457Z,2.40
2022-10-04T16:55:25.601Z,2.60
2022-10-04T17:00:38.094Z,3.40
2022-10-04T17:05:53.222Z,3.15
2022-10-04T17:11:15.194Z,3.25
2022-10-04T17:16:19.929Z,3.35
2022-10-04T17:21:46.071Z,3.13
2022-10-04T17:27:13.457Z,3.85
2022-10-04T17:32:48.678Z,3.53
2022-10-04T17:37:56.603Z,3.83
2022-10-04T17:43:16.190Z,3.90
2022-10-04T17:48:40.784Z,3.63
2022-10-04T17:54:05.709Z,3.95
2022-10-04T17:59:12.994Z,4.07
2022-10-04T18:04:17.539Z,3.90
2022-10-04T18:09:25.089Z,3.35
2022-10-04T18:14:36.487Z,3.25
2022-10-04T18:19:59.729Z,3.88
2022-10-04T18:25:23.570Z,3.90
2022-10-04T18:30:26.189Z,3.97
2022-10-04T18:35:33.648Z,4.28
2022-10-04T18:40:44.015Z,4.15
2022-10-04T18:46:14.367Z,5.70
2022-10-04T18:51:52.183Z,4.93
2022-10-04T18:57:18.821Z,3.95
2022-10-04T19:02:34.997Z,3.65
2022-10-04T19:07:52.168Z,4.47
2022-10-04T19:13:24.773Z,3.95
2022-10-04T19:18:46.951Z,4.15
2022-10-04T19:24:15.763Z,3.95
2022-10-04T19:29:23.660Z,3.67
2022-10-04T19:34:35.922Z,4.45
2022-10-04T19:39:59.889Z,4.40
2022-10-04T19:45:18.450Z,3.92
2022-10-04T19:50:46.645Z,4.75
2022-10-04T19:55:59.240Z,4.60
2022-10-04T20:01:01.112Z,4.82
2022-10-04T20:06:04.082Z,4.78
2022-10-04T20:11:18.417Z,4.95
2022-10-04T20:16:49.742Z,4.63
2022-10-04T20:21:51.831Z,4.95
2022-10-04T20:26:56.921Z,4.72
2022-10-04T20:31:59.156Z,5.40
2022-10-04T20:37:02.136Z,3.92
2022-10-04T20:42:20.193Z,4.68
2022-10-04T20:47:46.732Z,4.60
2022-10-04T20:52:52.714Z,4.25
2022-10-04T20:58:21.532Z,4.55
2022-10-04T21:03:23.827Z,5.05
2022-10-04T21:08:27.645Z,4.70
2022-10-04T21:13:58.931Z,3.92
2022-10-04T21:19:44.227Z,4.28
2022-10-04T21:24:49.210Z,3.95
2022-10-04T21:29:53.626Z,3.65
2022-10-04T21:34:55.374Z,3.67
2022-10-04T21:39:57.245Z,3.78
2022-10-04T21:44:59.233Z,4.00
2022-10-04T21:50:01.001Z,3.58
2022-10-04T21:55:02.993Z,4.00
2022-10-04T22:00:05.394Z,3.80
2022-10-04T22:05:27.443Z,3.67
2022-10-04T22:10:29.191Z,3.88
2022-10-04T22:15:30.979Z,4.00
2022-10-04T22:20:33.016Z,4.00
2022-10-04T22:25:34.784Z,4.43
2022-10-04T22:30:36.701Z,4.53
2022-10-04T22:35:38.418Z,3.85
2022-10-04T22:40:40.440Z,4.22
2022-10-04T22:45:43.582Z,3.90
2022-10-04T22:50:45.309Z,4.40
2022-10-04T22:55:51.548Z,4.18
2022-10-04T23:00:55.279Z,4.10
2022-10-04T23:06:01.366Z,3.33
2022-10-04T23:11:03.077Z,3.78
2022-10-04T23:16:15.138Z,4.50
2022-10-04T23:21:23.869Z,3.63
2022-10-04T23:26:34.754Z,4.13
2022-10-04T23:31:37.258Z,3.83
2022-10-04T23:36:39.017Z,4.00
2022-10-04T23:41:42.254Z,4.43
2022-10-04T23:46:44.655Z,4.35
2022-10-04T23:51:48.078Z,4.60
2022-10-04T23:56:50.192Z,4.32
